createdAt,value
2023-01-22T00:00:25.219Z,27.50
2023-01-22T00:03:19.568Z,27.50
2023-01-22T00:06:14.632Z,27.50
2023-01-22T00:09:17.891Z,27.50
2023-01-22T00:12:12.563Z,27.50
2023-01-22T00:15:07.379Z,27.50
2023-01-22T00:18:01.679Z,27.40
2023-01-22T00:20:56.923Z,27.40
2023-01-22T00:23:51.235Z,27.50
2023-01-22T00:26:45.856Z,27.60
2023-01-22T00:29:40.216Z,27.80
2023-01-22T00:32:34.838Z,27.90
2023-01-22T00:35:29.001Z,28.00
2023-01-22T00:38:23.306Z,28.00
2023-01-22T00:41:18.880Z,28.10
2023-01-22T00:44:13.189Z,28.20
2023-01-22T00:47:07.366Z,28.40
2023-01-22T00:50:02.010Z,28.50
2023-01-22T00:52:56.587Z,28.50
2023-01-22T00:56:00.029Z,28.50
2023-01-22T00:58:54.407Z,28.60
2023-01-22T01:01:51.690Z,28.70
2023-01-22T01:04:46.027Z,28.80
2023-01-22T01:07:40.309Z,28.90
2023-01-22T01:10:34.605Z,29.00
2023-01-22T01:13:30.454Z,29.20
2023-01-22T01:16:35.527Z,29.30
2023-01-22T01:19:29.751Z,29.30
2023-01-22T01:22:24.075Z,29.40
2023-01-22T01:25:18.486Z,29.40
2023-01-22T01:28:12.697Z,29.50
2023-01-22T01:31:09.487Z,29.60
2023-01-22T01:34:04.052Z,29.60
2023-01-22T01:36:58.365Z,29.70
2023-01-22T01:39:58.083Z,29.80
2023-01-22T01:42:52.374Z,29.90
2023-01-22T01:45:47.014Z,30.00
2023-01-22T01:48:48.026Z,30.10
2023-01-22T01:51:42.427Z,30.00
2023-01-22T01:54:37.444Z,30.10
2023-01-22T01:57:36.375Z,30.20
2023-01-22T02:00:35.481Z,30.20
2023-01-22T02:03:31.016Z,30.30
2023-01-22T02:06:25.587Z,30.40
2023-01-22T02:09:19.775Z,30.50
2023-01-22T02:12:14.278Z,30.60
2023-01-22T02:15:09.890Z,30.70
2023-01-22T02:18:04.181Z,30.80
2023-01-22T02:21:03.745Z,30.80
2023-01-22T02:23:58.117Z,30.70
2023-01-22T02:26:52.334Z,30.70
2023-01-22T02:29:46.807Z,30.80
2023-01-22T02:32:41.043Z,31.00
2023-01-22T02:35:35.511Z,31.00
2023-01-22T02:38:29.764Z,31.10
2023-01-22T02:41:27.368Z,31.30
2023-01-22T02:44:21.744Z,31.50
2023-01-22T02:47:15.974Z,31.60
2023-01-22T02:50:11.778Z,31.70
2023-01-22T02:53:06.075Z,31.80
2023-01-22T02:56:00.979Z,31.90
2023-01-22T02:58:58.297Z,31.90
2023-01-22T03:01:53.095Z,31.80
2023-01-22T03:04:51.355Z,31.90
2023-01-22T03:07:46.204Z,32.10
2023-01-22T03:10:40.742Z,32.20
2023-01-22T03:13:53.345Z,32.20
2023-01-22T03:17:05.918Z,32.20
2023-01-22T03:20:18.506Z,32.30
2023-01-22T03:23:12.999Z,32.50
2023-01-22T03:26:07.585Z,32.50
2023-01-22T03:29:01.991Z,32.50
2023-01-22T03:31:56.498Z,32.70
2023-01-22T03:34:50.852Z,32.70
2023-01-22T03:37:45.101Z,32.80
2023-01-22T03:40:39.344Z,32.90
2023-01-22T03:43:34.140Z,33.00
2023-01-22T03:46:29.039Z,33.00
2023-01-22T03:49:23.487Z,32.90
2023-01-22T03:52:17.778Z,32.70
2023-01-22T03:55:12.299Z,32.80
2023-01-22T03:58:06.531Z,33.00
2023-01-22T04:01:04.048Z,33.00
2023-01-22T04:03:58.711Z,33.00
2023-01-22T04:06:53.106Z,33.10
2023-01-22T04:09:47.405Z,33.10
2023-01-22T04:12:41.715Z,33.10
2023-01-22T04:15:36.028Z,33.00
2023-01-22T04:18:31.257Z,33.00
2023-01-22T04:21:25.538Z,33.00
2023-01-22T04:24:19.764Z,33.00
2023-01-22T04:27:13.943Z,33.00
2023-01-22T04:30:08.780Z,33.20
2023-01-22T04:33:03.051Z,33.20
2023-01-22T04:35:57.686Z,33.30
2023-01-22T04:38:51.981Z,33.40
2023-01-22T04:41:46.241Z,33.50
2023-01-22T04:44:43.375Z,33.50
2023-01-22T04:47:43.743Z,33.50
2023-01-22T04:50:37.969Z,33.50
2023-01-22T04:53:32.338Z,33.60
2023-01-22T04:56:26.606Z,33.60
2023-01-22T04:59:29.779Z,33.50
2023-01-22T05:02:24.293Z,33.50
2023-01-22T05:05:18.674Z,33.60
2023-01-22T05:08:12.940Z,33.60
2023-01-22T05:11:07.418Z,33.60
2023-01-22T05:14:01.589Z,33.50
2023-01-22T05:16:57.823Z,33.60
2023-01-22T05:19:52.022Z,33.70
2023-01-22T05:22:46.601Z,33.70
2023-01-22T05:25:40.862Z,33.70
2023-01-22T05:28:35.046Z,33.70
2023-01-22T05:31:29.536Z,33.80
2023-01-22T05:34:24.237Z,33.80
2023-01-22T05:37:18.534Z,33.80
2023-01-22T05:40:13.382Z,33.80
2023-01-22T05:43:09.771Z,33.80
2023-01-22T05:46:05.443Z,33.60
2023-01-22T05:49:00.582Z,33.60
2023-01-22T05:51:57.043Z,33.60
2023-01-22T05:54:51.322Z,33.60
2023-01-22T05:57:47.657Z,33.60
2023-01-22T06:00:41.968Z,33.70
2023-01-22T06:03:36.232Z,33.70
2023-01-22T06:06:30.539Z,33.70
2023-01-22T06:09:24.871Z,33.70
2023-01-22T06:12:19.766Z,33.60
2023-01-22T06:15:14.570Z,33.60
2023-01-22T06:18:08.941Z,33.60
2023-01-22T06:21:05.985Z,33.70
2023-01-22T06:24:00.277Z,33.60
2023-01-22T06:26:54.545Z,33.60
2023-01-22T06:29:48.843Z,33.60
2023-01-22T06:32:43.018Z,33.60
2023-01-22T06:35:37.277Z,33.60
2023-01-22T06:38:35.011Z,33.60
2023-01-22T06:41:29.364Z,33.60
2023-01-22T06:44:24.371Z,33.50
2023-01-22T06:47:18.647Z,33.40
2023-01-22T06:50:13.768Z,33.40
2023-01-22T06:53:08.250Z,33.40
2023-01-22T06:56:02.629Z,33.40
2023-01-22T06:58:57.045Z,33.40
2023-01-22T07:01:51.459Z,33.30
2023-01-22T07:04:51.055Z,33.20
2023-01-22T07:07:45.455Z,33.10
2023-01-22T07:10:39.829Z,33.10
2023-01-22T07:13:34.040Z,33.10
2023-01-22T07:16:28.419Z,33.10
2023-01-22T07:19:22.835Z,33.10
2023-01-22T07:22:17.140Z,33.00
2023-01-22T07:25:16.680Z,33.10
2023-01-22T07:28:12.246Z,33.10
2023-01-22T07:31:10.741Z,33.00
2023-01-22T07:34:05.728Z,32.90
2023-01-22T07:36:59.977Z,32.80
2023-01-22T07:39:54.302Z,32.60
2023-01-22T07:42:48.653Z,32.60
2023-01-22T07:45:43.237Z,32.60
2023-01-22T07:48:38.668Z,32.60
2023-01-22T07:51:33.396Z,32.50
2023-01-22T07:54:27.814Z,32.50
2023-01-22T07:57:22.041Z,32.60
2023-01-22T08:00:17.378Z,32.50
2023-01-22T08:03:11.951Z,32.50
2023-01-22T08:06:17.008Z,32.40
2023-01-22T08:09:15.386Z,32.40
2023-01-22T08:12:09.599Z,32.30
2023-01-22T08:15:03.823Z,32.30
2023-01-22T08:17:58.079Z,32.20
2023-01-22T08:20:52.645Z,32.20
2023-01-22T08:23:49.095Z,32.20
2023-01-22T08:26:46.662Z,32.10
2023-01-22T08:29:43.875Z,32.10
2023-01-22T08:32:38.863Z,32.00
2023-01-22T08:35:36.449Z,31.90
2023-01-22T08:38:30.756Z,31.90
2023-01-22T08:41:25.957Z,31.80
2023-01-22T08:44:23.994Z,31.70
2023-01-22T08:47:21.264Z,31.70
2023-01-22T08:50:16.178Z,31.50
2023-01-22T08:53:11.215Z,31.40
2023-01-22T08:56:05.734Z,31.30
2023-01-22T08:59:02.009Z,31.20
2023-01-22T09:01:56.383Z,31.10
2023-01-22T09:04:50.726Z,31.20
2023-01-22T09:07:45.055Z,31.20
2023-01-22T09:10:42.063Z,31.20
2023-01-22T09:13:36.454Z,31.20
2023-01-22T09:16:30.977Z,31.20
2023-01-22T09:19:25.937Z,31.10
2023-01-22T09:22:28.815Z,31.00
2023-01-22T09:25:23.281Z,30.90
2023-01-22T09:28:17.727Z,30.90
2023-01-22T09:31:17.037Z,30.80
2023-01-22T09:34:11.305Z,30.50
2023-01-22T09:37:09.109Z,30.40
2023-01-22T09:40:06.247Z,30.40
2023-01-22T09:43:44.465Z,30.40
2023-01-22T09:46:49.570Z,30.30
2023-01-22T09:50:02.127Z,30.30
2023-01-22T09:52:59.149Z,30.20
2023-01-22T09:55:54.211Z,30.20
2023-01-22T09:58:53.384Z,30.00
2023-01-22T10:01:56.718Z,29.90
2023-01-22T10:04:55.713Z,29.70
2023-01-22T10:07:57.998Z,29.60
2023-01-22T10:10:53.399Z,29.60
2023-01-22T10:13:50.265Z,29.50
2023-01-22T10:16:44.572Z,29.50
2023-01-22T10:19:46.086Z,29.40
2023-01-22T10:22:40.387Z,29.40
2023-01-22T10:25:35.989Z,29.30
2023-01-22T10:28:30.755Z,29.30
2023-01-22T10:31:34.828Z,29.20
2023-01-22T10:34:35.610Z,29.10
2023-01-22T10:37:33.637Z,29.00
2023-01-22T10:40:44.263Z,28.90
2023-01-22T10:43:40.507Z,28.60
2023-01-22T10:46:45.218Z,28.50
2023-01-22T10:49:39.551Z,28.30
2023-01-22T10:52:54.252Z,28.10
2023-01-22T10:55:55.527Z,28.00
2023-01-22T10:58:50.333Z,28.00
2023-01-22T11:01:44.886Z,28.00
2023-01-22T11:04:40.498Z,28.00
2023-01-22T11:07:35.699Z,27.90
2023-01-22T11:10:53.120Z,27.90
2023-01-22T11:13:57.416Z,27.90
2023-01-22T11:16:54.606Z,27.80
2023-01-22T11:20:11.319Z,27.70
2023-01-22T11:23:11.358Z,27.70
2023-01-22T11:26:17.210Z,27.70
2023-01-22T11:29:17.578Z,27.60
2023-01-22T11:32:30.479Z,27.60
2023-01-22T11:35:28.817Z,27.50
2023-01-22T11:38:31.823Z,27.50
2023-01-22T11:41:56.647Z,27.40
2023-01-22T11:44:57.695Z,27.40
2023-01-22T11:48:15.384Z,27.30
2023-01-22T11:51:28.115Z,27.20
2023-01-22T11:54:29.995Z,27.10
2023-01-22T11:57:35.865Z,27.00
2023-01-22T12:00:30.233Z,26.90
2023-01-22T12:03:52.188Z,26.80
2023-01-22T12:07:13.021Z,26.80
2023-01-22T12:10:22.287Z,26.70
2023-01-22T12:13:41.272Z,26.60
2023-01-22T12:16:46.918Z,26.50
2023-01-22T12:20:07.235Z,26.50
2023-01-22T12:23:42.906Z,26.40
2023-01-22T12:27:02.413Z,26.30
2023-01-22T12:30:44.367Z,26.30
2023-01-22T12:33:43.396Z,26.10
2023-01-22T12:36:41.049Z,26.00
2023-01-22T12:40:04.086Z,25.90
2023-01-22T12:43:01.981Z,25.80
2023-01-22T12:46:03.647Z,25.70
2023-01-22T12:49:12.621Z,25.70
2023-01-22T12:52:06.852Z,25.70
2023-01-22T12:55:02.295Z,25.70
2023-01-22T12:57:56.534Z,25.70
2023-01-22T13:01:07.959Z,25.60
2023-01-22T13:04:09.092Z,25.60
2023-01-22T13:07:37.169Z,25.50
2023-01-22T13:10:36.884Z,25.50
2023-01-22T13:13:45.937Z,25.40
2023-01-22T13:16:42.963Z,25.30
2023-01-22T13:19:49.400Z,25.30
2023-01-22T13:22:44.818Z,25.20
2023-01-22T13:25:39.169Z,25.10
2023-01-22T13:28:33.757Z,25.00
2023-01-22T13:31:28.730Z,25.00
2023-01-22T13:34:23.355Z,24.90
2023-01-22T13:37:26.011Z,24.90
2023-01-22T13:40:33.056Z,24.80
2023-01-22T13:43:31.884Z,24.80
2023-01-22T13:46:28.074Z,24.70
2023-01-22T13:49:52.868Z,24.70
2023-01-22T13:52:47.135Z,24.70
2023-01-22T13:55:41.434Z,24.70
2023-01-22T13:58:49.012Z,24.70
2023-01-22T14:01:43.597Z,24.60
2023-01-22T14:04:39.024Z,24.60
2023-01-22T14:07:36.277Z,24.50
2023-01-22T14:10:31.199Z,24.50
2023-01-22T14:13:25.491Z,24.40
2023-01-22T14:16:20.530Z,24.40
2023-01-22T14:19:15.676Z,24.40
2023-01-22T14:22:09.864Z,24.30
2023-01-22T14:25:04.973Z,24.30
2023-01-22T14:28:03.209Z,24.30
2023-01-22T14:31:00.690Z,24.20
2023-01-22T14:33:54.992Z,24.20
2023-01-22T14:36:53.542Z,24.10
2023-01-22T14:39:47.735Z,24.10
2023-01-22T14:42:46.776Z,24.00
2023-01-22T14:45:46.587Z,24.00
2023-01-22T14:48:41.103Z,24.00
2023-01-22T14:51:35.276Z,23.90
2023-01-22T14:54:29.583Z,23.90
2023-01-22T14:57:24.596Z,23.80
2023-01-22T15:00:20.862Z,23.80
2023-01-22T15:03:15.228Z,23.80
2023-01-22T15:06:09.569Z,23.70
2023-01-22T15:09:03.785Z,23.70
2023-01-22T15:11:58.071Z,23.70
2023-01-22T15:14:52.378Z,23.60
2023-01-22T15:17:46.863Z,23.60
2023-01-22T15:20:41.156Z,23.60
2023-01-22T15:23:36.240Z,23.60
2023-01-22T15:26:36.589Z,23.50
2023-01-22T15:29:30.883Z,23.50
2023-01-22T15:32:25.145Z,23.50
2023-01-22T15:35:19.526Z,23.40
2023-01-22T15:38:13.823Z,23.40
2023-01-22T15:41:19.072Z,23.50
2023-01-22T15:44:15.058Z,23.40
2023-01-22T15:47:09.985Z,23.40
2023-01-22T15:50:05.013Z,23.40
2023-01-22T15:52:59.744Z,23.30
2023-01-22T15:55:53.958Z,23.30
2023-01-22T15:58:48.456Z,23.30
2023-01-22T16:01:44.611Z,23.30
2023-01-22T16:04:38.916Z,23.30
2023-01-22T16:07:33.115Z,23.30
2023-01-22T16:10:27.367Z,23.30
2023-01-22T16:13:21.648Z,23.20
2023-01-22T16:16:31.525Z,23.20
2023-01-22T16:19:25.797Z,23.30
2023-01-22T16:22:20.160Z,23.30
2023-01-22T16:25:14.791Z,23.20
2023-01-22T16:28:09.292Z,23.20
2023-01-22T16:31:09.444Z,23.20
2023-01-22T16:34:13.552Z,23.20
2023-01-22T16:37:07.882Z,23.20
2023-01-22T16:40:02.265Z,23.20
2023-01-22T16:43:04.047Z,23.10
2023-01-22T16:45:58.361Z,23.10
2023-01-22T16:49:00.621Z,23.10
2023-01-22T16:51:58.487Z,23.10
2023-01-22T16:54:53.069Z,23.10
2023-01-22T16:57:47.358Z,23.00
2023-01-22T17:00:41.571Z,23.00
2023-01-22T17:03:38.852Z,22.90
2023-01-22T17:06:35.292Z,22.90
2023-01-22T17:09:32.795Z,22.90
2023-01-22T17:12:27.741Z,22.80
2023-01-22T17:15:21.985Z,22.80
2023-01-22T17:18:16.748Z,22.80
2023-01-22T17:21:14.617Z,22.80
2023-01-22T17:24:09.422Z,22.80
2023-01-22T17:27:09.104Z,22.80
2023-01-22T17:30:03.535Z,22.70
2023-01-22T17:32:57.861Z,22.70
2023-01-22T17:35:52.700Z,22.70
2023-01-22T17:38:47.689Z,22.70
2023-01-22T17:41:41.963Z,22.70
2023-01-22T17:44:36.526Z,22.60
2023-01-22T17:47:30.829Z,22.50
2023-01-22T17:50:27.263Z,22.50
2023-01-22T17:53:21.757Z,22.50
2023-01-22T17:56:16.045Z,22.40
2023-01-22T18:02:20.733Z,22.50
2023-01-22T18:05:15.386Z,22.50
2023-01-22T18:08:11.775Z,22.50
2023-01-22T18:11:14.683Z,22.50
2023-01-22T18:14:13.380Z,22.60
2023-01-22T18:17:07.784Z,22.60
2023-01-22T18:20:04.780Z,22.60
2023-01-22T18:22:59.072Z,22.60
2023-01-22T18:25:57.588Z,22.70
2023-01-22T18:28:53.743Z,22.70
2023-01-22T18:31:48.296Z,22.80
2023-01-22T18:34:42.548Z,22.80
2023-01-22T18:37:38.202Z,22.90
2023-01-22T18:40:33.367Z,22.90
2023-01-22T18:43:27.691Z,23.00
2023-01-22T18:46:22.163Z,23.00
2023-01-22T18:49:20.933Z,23.00
2023-01-22T18:52:15.199Z,23.10
2023-01-22T18:55:09.992Z,23.10
2023-01-22T18:58:19.895Z,23.10
2023-01-22T19:01:23.506Z,23.10
2023-01-22T19:04:21.483Z,23.10
2023-01-22T19:07:15.708Z,23.10
2023-01-22T19:10:10.421Z,23.10
2023-01-22T19:13:07.541Z,23.00
2023-01-22T19:16:08.251Z,23.00
2023-01-22T19:19:05.406Z,23.00
2023-01-22T19:21:59.730Z,22.90
2023-01-22T19:24:54.346Z,22.90
2023-01-22T19:27:48.750Z,22.90
2023-01-22T19:30:43.067Z,22.80
2023-01-22T19:33:42.588Z,22.80
2023-01-22T19:36:39.435Z,22.80
2023-01-22T19:39:34.097Z,22.80
2023-01-22T19:42:29.973Z,22.70
2023-01-22T19:45:24.240Z,22.70
2023-01-22T19:48:21.578Z,22.70
2023-01-22T19:51:16.671Z,22.60
2023-01-22T19:54:11.450Z,22.60
2023-01-22T19:57:05.749Z,22.60
2023-01-22T20:00:00.897Z,22.60
2023-01-22T20:02:55.246Z,22.60
2023-01-22T20:05:49.819Z,22.60
2023-01-22T20:08:44.398Z,22.60
2023-01-22T20:11:38.828Z,22.60
2023-01-22T20:14:36.071Z,22.60
2023-01-22T20:17:35.769Z,22.50
2023-01-22T20:20:29.948Z,22.50
2023-01-22T20:23:25.421Z,22.50
2023-01-22T20:26:21.741Z,22.50
2023-01-22T20:29:16.037Z,22.50
2023-01-22T20:32:10.416Z,22.40
2023-01-22T20:35:04.679Z,22.50
2023-01-22T20:37:59.161Z,22.50
2023-01-22T20:40:53.677Z,22.50
2023-01-22T20:43:48.032Z,22.50
2023-01-22T20:46:45.508Z,22.50
2023-01-22T20:49:43.802Z,22.50
2023-01-22T20:52:38.091Z,22.60
2023-01-22T20:55:32.297Z,22.60
2023-01-22T20:58:29.327Z,22.60
2023-01-22T21:01:23.568Z,22.60
2023-01-22T21:04:19.537Z,22.60
2023-01-22T21:07:13.819Z,22.60
2023-01-22T21:10:08.593Z,22.60
2023-01-22T21:13:02.882Z,22.70
2023-01-22T21:15:57.275Z,22.70
2023-01-22T21:18:51.533Z,22.70
2023-01-22T21:21:46.099Z,22.70
2023-01-22T21:24:40.411Z,22.80
2023-01-22T21:27:34.596Z,22.80
2023-01-22T21:30:30.166Z,22.90
2023-01-22T21:33:24.422Z,22.90
2023-01-22T21:36:19.632Z,22.90
2023-01-22T21:39:16.803Z,23.00
2023-01-22T21:42:29.360Z,23.00
2023-01-22T21:45:41.777Z,23.10
2023-01-22T21:48:36.039Z,23.20
2023-01-22T21:51:31.662Z,23.20
2023-01-22T21:54:35.025Z,23.30
2023-01-22T21:57:29.405Z,23.40
2023-01-22T22:00:23.751Z,23.50
2023-01-22T22:03:18.051Z,23.60
2023-01-22T22:06:17.301Z,23.60
2023-01-22T22:09:21.257Z,23.70
2023-01-22T22:12:15.566Z,23.80
2023-01-22T22:15:25.122Z,23.90
2023-01-22T22:18:24.246Z,24.00
2023-01-22T22:21:18.936Z,24.10
2023-01-22T22:24:13.972Z,24.20
2023-01-22T22:27:08.192Z,24.40
2023-01-22T22:30:02.407Z,24.50
2023-01-22T22:32:56.764Z,24.80
2023-01-22T22:35:50.971Z,25.10
2023-01-22T22:38:45.872Z,25.50
2023-01-22T22:41:40.469Z,25.90
2023-01-22T22:44:39.392Z,26.30
2023-01-22T22:47:36.933Z,26.60
2023-01-22T22:50:31.274Z,26.90
2023-01-22T22:53:28.331Z,27.20
2023-01-22T22:56:23.313Z,27.40
2023-01-22T22:59:21.063Z,27.60
2023-01-22T23:02:15.506Z,27.70
2023-01-22T23:05:10.113Z,27.80
2023-01-22T23:08:04.507Z,28.00
2023-01-22T23:10:58.724Z,28.20
2023-01-22T23:13:53.766Z,28.30
2023-01-22T23:16:48.974Z,28.30
2023-01-22T23:19:43.331Z,28.40
2023-01-22T23:22:37.551Z,28.50
2023-01-22T23:25:31.844Z,28.70
2023-01-22T23:28:26.076Z,28.80
2023-01-22T23:31:20.482Z,28.90
2023-01-22T23:34:22.776Z,29.10
2023-01-22T23:37:17.070Z,29.20
2023-01-22T23:40:12.083Z,29.30
2023-01-22T23:43:06.821Z,29.40
2023-01-22T23:46:01.644Z,29.50
2023-01-22T23:48:57.347Z,29.60
2023-01-22T23:51:51.708Z,29.70
2023-01-22T23:54:45.989Z,29.80
2023-01-22T23:57:40.225Z,29.90
